createdAt,value
2022-11-20T00:00:18.285Z,100612.66
2022-11-20T00:02:44.671Z,100614.59
2022-11-20T00:05:11.076Z,100616.50
2022-11-20T00:07:38.669Z,100615.97
2022-11-20T00:10:05.468Z,100610.78
2022-11-20T00:12:32.460Z,100619.00
2022-11-20T00:14:58.820Z,100614.59
2022-11-20T00:17:26.786Z,100619.25
2022-11-20T00:19:53.222Z,100615.72
2022-11-20T00:22:20.066Z,100617.34
2022-11-20T00:24:49.458Z,100614.59
2022-11-20T00:27:16.039Z,100622.00
2022-11-20T00:29:42.354Z,100614.06
2022-11-20T00:32:08.855Z,100616.00
2022-11-20T00:34:35.358Z,100615.19
2022-11-20T00:37:02.131Z,100611.63
2022-11-20T00:39:28.433Z,100610.81
2022-11-20T00:41:54.771Z,100614.63
2022-11-20T00:44:22.664Z,100620.97
2022-11-20T00:46:49.248Z,100615.47
2022-11-20T00:49:15.584Z,100620.13
2022-11-20T00:51:41.904Z,100623.97
2022-11-20T00:54:08.388Z,100612.47
2022-11-20T00:56:34.697Z,100612.75
2022-11-20T00:59:02.320Z,100611.41
2022-11-20T01:01:30.248Z,100620.72
2022-11-20T01:04:00.196Z,100627.31
2022-11-20T01:06:35.437Z,100632.25
2022-11-20T01:09:05.194Z,100628.97
2022-11-20T01:11:35.027Z,100626.44
2022-11-20T01:14:04.225Z,100628.63
2022-11-20T01:16:37.083Z,100623.94
2022-11-20T01:19:05.943Z,100620.06
2022-11-20T01:21:34.672Z,100628.50
2022-11-20T01:24:02.352Z,100623.53
2022-11-20T01:26:31.214Z,100624.00
2022-11-20T01:28:58.378Z,100623.97
2022-11-20T01:31:26.241Z,100616.53
2022-11-20T01:33:54.698Z,100613.16
2022-11-20T01:36:22.284Z,100621.09
2022-11-20T01:38:48.974Z,100607.53
2022-11-20T01:41:36.153Z,100606.97
2022-11-20T01:44:03.871Z,100618.41
2022-11-20T01:46:37.013Z,100610.97
2022-11-20T01:49:08.821Z,100606.25
2022-11-20T01:52:13.717Z,100605.38
2022-11-20T01:54:55.621Z,100601.78
2022-11-20T01:57:24.601Z,100590.75
2022-11-20T01:59:56.537Z,100587.94
2022-11-20T02:02:24.539Z,100586.75
2022-11-20T02:04:55.201Z,100582.63
2022-11-20T02:07:23.443Z,100576.25
2022-11-20T02:09:50.178Z,100558.06
2022-11-20T02:12:34.904Z,100571.22
2022-11-20T02:15:01.584Z,100568.41
2022-11-20T02:17:28.769Z,100571.66
2022-11-20T02:19:55.282Z,100563.66
2022-11-20T02:22:39.172Z,100564.19
2022-11-20T02:25:07.954Z,100565.22
2022-11-20T02:27:35.154Z,100568.22
2022-11-20T02:30:04.195Z,100561.59
2022-11-20T02:32:33.590Z,100566.81
2022-11-20T02:35:09.513Z,100558.25
2022-11-20T02:37:39.699Z,100562.38
2022-11-20T02:40:06.849Z,100569.19
2022-11-20T02:42:33.189Z,100564.50
2022-11-20T02:44:59.493Z,100563.38
2022-11-20T02:47:25.875Z,100576.53
2022-11-20T02:49:52.195Z,100581.75
2022-11-20T02:52:18.526Z,100571.28
2022-11-20T02:54:44.891Z,100578.66
2022-11-20T02:57:11.413Z,100567.03
2022-11-20T02:59:37.761Z,100567.56
2022-11-20T03:02:04.298Z,100569.72
2022-11-20T03:04:30.656Z,100554.56
2022-11-20T03:06:57.234Z,100554.81
2022-11-20T03:09:23.882Z,100549.81
2022-11-20T03:11:50.384Z,100553.09
2022-11-20T03:14:16.949Z,100550.84
2022-11-20T03:16:43.337Z,100546.97
2022-11-20T03:19:09.762Z,100545.88
2022-11-20T03:21:36.461Z,100536.53
2022-11-20T03:24:03.817Z,100535.72
2022-11-20T03:26:30.577Z,100540.09
2022-11-20T03:28:59.389Z,100539.28
2022-11-20T03:31:28.769Z,100538.16
2022-11-20T03:33:56.918Z,100523.28
2022-11-20T03:36:23.398Z,100526.84
2022-11-20T03:38:50.567Z,100531.22
2022-11-20T03:41:20.133Z,100525.44
2022-11-20T03:43:54.595Z,100529.81
2022-11-20T03:46:21.765Z,100527.28
2022-11-20T03:48:51.681Z,100524.75
2022-11-20T03:51:22.457Z,100518.97
2022-11-20T03:53:50.433Z,100524.16
2022-11-20T03:56:18.822Z,100517.53
2022-11-20T03:58:45.558Z,100519.69
2022-11-20T04:01:17.540Z,100520.19
2022-11-20T04:03:44.832Z,100524.06
2022-11-20T04:06:13.872Z,100519.69
2022-11-20T04:08:40.372Z,100521.31
2022-11-20T04:11:12.531Z,100525.19
2022-11-20T04:13:38.981Z,100521.31
2022-11-20T04:16:07.701Z,100523.47
2022-11-20T04:18:34.458Z,100522.03
2022-11-20T04:21:01.902Z,100523.41
2022-11-20T04:23:29.043Z,100517.59
2022-11-20T04:25:55.738Z,100509.56
2022-11-20T04:28:22.103Z,100511.69
2022-11-20T04:30:48.408Z,100512.53
2022-11-20T04:33:14.905Z,100508.38
2022-11-20T04:35:41.420Z,100507.25
2022-11-20T04:38:08.120Z,100505.84
2022-11-20T04:40:34.496Z,100499.72
2022-11-20T04:43:01.106Z,100495.63
2022-11-20T04:45:27.438Z,100496.97
2022-11-20T04:47:53.896Z,100496.97
2022-11-20T04:50:20.262Z,100496.16
2022-11-20T04:52:46.806Z,100496.16
2022-11-20T04:55:13.292Z,100485.13
2022-11-20T04:57:39.694Z,100489.00
2022-11-20T05:00:06.716Z,100502.78
2022-11-20T05:02:33.400Z,100497.59
2022-11-20T05:04:59.763Z,100502.56
2022-11-20T05:07:26.354Z,100496.53
2022-11-20T05:09:54.159Z,100493.53
2022-11-20T05:12:20.532Z,100498.22
2022-11-20T05:14:46.876Z,100498.53
2022-11-20T05:17:13.467Z,100501.88
2022-11-20T05:19:39.832Z,100504.63
2022-11-20T05:22:06.471Z,100505.75
2022-11-20T05:24:34.784Z,100507.38
2022-11-20T05:27:01.145Z,100498.53
2022-11-20T05:29:27.695Z,100497.91
2022-11-20T05:31:54.095Z,100488.56
2022-11-20T05:34:20.440Z,100494.31
2022-11-20T05:36:46.944Z,100486.56
2022-11-20T05:39:13.784Z,100489.00
2022-11-20T05:41:40.168Z,100490.94
2022-11-20T05:44:06.699Z,100501.16
2022-11-20T05:46:33.417Z,100495.09
2022-11-20T05:48:59.988Z,100493.47
2022-11-20T05:51:27.514Z,100492.66
2022-11-20T05:53:54.066Z,100489.66
2022-11-20T05:56:22.446Z,100486.41
2022-11-20T05:58:50.183Z,100476.81
2022-11-20T06:01:23.119Z,100484.56
2022-11-20T06:03:51.468Z,100482.41
2022-11-20T06:06:19.474Z,100489.03
2022-11-20T06:08:46.380Z,100480.28
2022-11-20T06:11:15.084Z,100479.47
2022-11-20T06:13:42.968Z,100480.56
2022-11-20T06:16:10.893Z,100477.53
2022-11-20T06:18:38.119Z,100470.91
2022-11-20T06:21:12.414Z,100476.72
2022-11-20T06:23:39.510Z,100481.09
2022-11-20T06:26:08.269Z,100479.97
2022-11-20T06:28:35.276Z,100483.53
2022-11-20T06:31:02.179Z,100481.59
2022-11-20T06:33:28.953Z,100475.28
2022-11-20T06:36:03.439Z,100478.84
2022-11-20T06:38:32.736Z,100483.25
2022-11-20T06:40:59.168Z,100487.91
2022-11-20T06:43:26.874Z,100495.66
2022-11-20T06:45:54.541Z,100497.28
2022-11-20T06:48:21.513Z,100499.22
2022-11-20T06:50:48.254Z,100498.09
2022-11-20T06:53:15.123Z,100507.47
2022-11-20T06:55:50.900Z,100510.53
2022-11-20T06:58:18.415Z,100512.16
2022-11-20T07:00:46.880Z,100514.09
2022-11-20T07:03:13.562Z,100518.47
2022-11-20T07:05:40.260Z,100523.97
2022-11-20T07:08:07.709Z,100500.84
2022-11-20T07:10:34.665Z,100502.19
2022-11-20T07:13:01.023Z,100503.81
2022-11-20T07:15:27.519Z,100505.44
2022-11-20T07:17:54.150Z,100504.88
2022-11-20T07:20:20.568Z,100513.63
2022-11-20T07:22:53.718Z,100516.09
2022-11-20T07:25:20.084Z,100521.31
2022-11-20T07:27:46.419Z,100520.50
2022-11-20T07:30:16.295Z,100516.91
2022-11-20T07:32:42.664Z,100523.81
2022-11-20T07:35:10.209Z,100520.56
2022-11-20T07:37:36.678Z,100529.09
2022-11-20T07:40:03.781Z,100522.28
2022-11-20T07:42:30.172Z,100533.59
2022-11-20T07:44:56.684Z,100525.91
2022-11-20T07:47:23.222Z,100532.53
2022-11-20T07:49:49.712Z,100521.00
2022-11-20T07:52:16.003Z,100525.69
2022-11-20T07:54:42.411Z,100519.38
2022-11-20T07:57:09.032Z,100519.69
2022-11-20T07:59:35.710Z,100526.00
2022-11-20T08:02:04.277Z,100528.75
2022-11-20T08:04:30.730Z,100533.94
2022-11-20T08:06:57.430Z,100536.69
2022-11-20T08:09:23.978Z,100530.91
2022-11-20T08:12:08.939Z,100537.75
2022-11-20T08:14:35.307Z,100531.66
2022-11-20T08:17:01.651Z,100540.94
2022-11-20T08:19:29.036Z,100535.13
2022-11-20T08:21:56.294Z,100534.53
2022-11-20T08:24:22.678Z,100518.56
2022-11-20T08:26:52.158Z,100519.88
2022-11-20T08:29:19.010Z,100525.81
2022-11-20T08:31:46.435Z,100525.22
2022-11-20T08:34:18.586Z,100516.06
2022-11-20T08:36:45.604Z,100511.56
2022-11-20T08:39:13.556Z,100515.88
2022-11-20T08:41:40.074Z,100517.72
2022-11-20T08:44:08.546Z,100518.13
2022-11-20T08:46:40.284Z,100514.13
2022-11-20T08:49:08.145Z,100516.50
2022-11-20T08:51:34.449Z,100514.97
2022-11-20T08:54:01.012Z,100509.06
2022-11-20T08:56:27.762Z,100509.47
2022-11-20T08:59:20.262Z,100506.31
2022-11-20T09:01:42.049Z,100510.28
2022-11-20T09:04:08.647Z,100509.03
2022-11-20T09:06:35.056Z,100511.41
2022-11-20T09:09:06.917Z,100512.91
2022-11-20T09:11:45.177Z,100505.88
2022-11-20T09:14:11.547Z,100512.88
2022-11-20T09:16:37.871Z,100511.31
2022-11-20T09:21:50.597Z,100503.81
2022-11-20T09:24:17.221Z,100510.56
2022-11-20T09:26:43.577Z,100512.88
2022-11-20T09:29:10.068Z,100505.81
2022-11-20T09:31:36.606Z,100504.22
2022-11-20T09:34:03.569Z,100498.28
2022-11-20T09:36:29.909Z,100491.50
2022-11-20T09:38:57.473Z,100499.34
2022-11-20T09:41:44.058Z,100490.41
2022-11-20T09:44:38.794Z,100487.72
2022-11-20T09:47:56.483Z,100480.63
2022-11-20T09:50:44.300Z,100482.59
2022-11-20T09:53:47.482Z,100479.41
2022-11-20T09:56:22.869Z,100472.28
2022-11-20T09:58:52.746Z,100471.84
2022-11-20T10:01:27.051Z,100480.00
2022-11-20T10:04:04.365Z,100481.81
2022-11-20T10:09:55.811Z,100474.53
2022-11-20T10:12:47.214Z,100470.81
2022-11-20T10:15:29.841Z,100462.88
2022-11-20T10:18:13.679Z,100464.97
2022-11-20T10:20:49.754Z,100459.00
2022-11-20T10:23:45.833Z,100456.56
2022-11-20T10:26:40.009Z,100455.25
2022-11-20T10:29:23.807Z,100451.22
2022-11-20T10:31:57.534Z,100450.72
2022-11-20T10:34:53.739Z,100452.88
2022-11-20T10:37:26.722Z,100453.19
2022-11-20T10:40:22.611Z,100453.69
2022-11-20T10:43:00.126Z,100459.19
2022-11-20T10:45:26.563Z,100438.06
2022-11-20T10:47:57.425Z,100428.78
2022-11-20T10:50:24.175Z,100443.25
2022-11-20T10:53:27.690Z,100439.03
2022-11-20T10:56:20.506Z,100437.38
2022-11-20T10:59:09.969Z,100436.91
2022-11-20T11:01:43.901Z,100439.16
2022-11-20T11:04:33.314Z,100429.06
2022-11-20T11:07:14.171Z,100432.47
2022-11-20T11:09:44.957Z,100414.41
2022-11-20T11:12:12.396Z,100411.28
2022-11-20T11:14:53.771Z,100410.47
2022-11-20T11:17:34.666Z,100410.47
2022-11-20T11:20:08.250Z,100410.66
2022-11-20T11:22:43.485Z,100413.53
2022-11-20T11:25:20.933Z,100413.53
2022-11-20T11:27:49.186Z,100408.97
2022-11-20T11:30:18.142Z,100407.00
2022-11-20T11:32:46.061Z,100389.59
2022-11-20T11:35:51.527Z,100394.97
2022-11-20T11:38:24.791Z,100396.63
2022-11-20T11:40:55.050Z,100394.97
2022-11-20T11:43:44.098Z,100391.72
2022-11-20T11:46:31.386Z,100382.81
2022-11-20T11:49:00.047Z,100383.94
2022-11-20T11:51:37.096Z,100377.44
2022-11-20T11:54:09.479Z,100375.81
2022-11-20T11:56:37.742Z,100387.72
2022-11-20T11:59:10.719Z,100381.34
2022-11-20T12:01:50.174Z,100375.47
2022-11-20T12:04:49.536Z,100374.50
2022-11-20T12:07:46.459Z,100372.81
2022-11-20T12:10:22.109Z,100358.13
2022-11-20T12:13:03.268Z,100355.69
2022-11-20T12:15:32.188Z,100359.53
2022-11-20T12:17:58.756Z,100353.50
2022-11-20T12:20:33.488Z,100355.25
2022-11-20T12:23:11.794Z,100351.81
2022-11-20T12:25:43.789Z,100349.38
2022-11-20T12:28:25.447Z,100344.09
2022-11-20T12:31:19.767Z,100334.97
2022-11-20T12:34:07.543Z,100329.44
2022-11-20T12:36:58.564Z,100323.91
2022-11-20T12:39:36.177Z,100310.38
2022-11-20T12:42:52.124Z,100317.56
2022-11-20T12:45:53.988Z,100312.81
2022-11-20T12:48:26.360Z,100314.09
2022-11-20T12:51:15.169Z,100311.00
2022-11-20T12:54:00.543Z,100315.03
2022-11-20T12:56:48.584Z,100307.69
2022-11-20T12:59:44.010Z,100295.13
2022-11-20T13:02:45.454Z,100293.63
2022-11-20T13:05:29.275Z,100284.66
2022-11-20T13:07:57.633Z,100282.03
2022-11-20T13:10:35.409Z,100281.22
2022-11-20T13:13:13.310Z,100278.44
2022-11-20T13:15:55.896Z,100270.44
2022-11-20T13:18:22.597Z,100263.75
2022-11-20T13:20:50.762Z,100256.59
2022-11-20T13:23:29.798Z,100267.53
2022-11-20T13:26:14.829Z,100254.81
2022-11-20T13:28:41.751Z,100244.22
2022-11-20T13:31:30.801Z,100247.31
2022-11-20T13:33:58.871Z,100238.34
2022-11-20T13:36:28.795Z,100239.50
2022-11-20T13:38:56.903Z,100223.19
2022-11-20T13:41:38.963Z,100231.03
2022-11-20T13:44:35.694Z,100222.25
2022-11-20T13:47:02.330Z,100220.75
2022-11-20T13:49:45.159Z,100213.47
2022-11-20T13:52:36.135Z,100217.03
2022-11-20T13:55:02.424Z,100199.28
2022-11-20T13:57:42.028Z,100209.53
2022-11-20T14:00:20.703Z,100200.97
2022-11-20T14:03:00.836Z,100196.91
2022-11-20T14:05:27.755Z,100194.03
2022-11-20T14:07:55.328Z,100188.69
2022-11-20T14:10:31.129Z,100192.44
2022-11-20T14:12:58.717Z,100180.41
2022-11-20T14:15:31.065Z,100171.50
2022-11-20T14:17:58.397Z,100171.00
2022-11-20T14:20:28.546Z,100170.06
2022-11-20T14:22:58.423Z,100159.66
2022-11-20T14:25:31.887Z,100158.38
2022-11-20T14:28:00.917Z,100161.50
2022-11-20T14:30:40.492Z,100155.81
2022-11-20T14:33:06.984Z,100165.41
2022-11-20T14:35:41.405Z,100161.69
2022-11-20T14:38:13.609Z,100151.78
2022-11-20T14:40:40.903Z,100143.78
2022-11-20T14:43:25.768Z,100142.84
2022-11-20T14:46:05.778Z,100134.88
2022-11-20T14:49:01.432Z,100125.63
2022-11-20T14:51:42.868Z,100125.63
2022-11-20T14:54:25.050Z,100115.56
2022-11-20T14:57:03.276Z,100106.78
2022-11-20T14:59:35.490Z,100101.91
2022-11-20T15:02:07.356Z,100102.59
2022-11-20T15:04:33.900Z,100099.84
2022-11-20T15:07:02.019Z,100092.19
2022-11-20T15:09:28.446Z,100082.75
2022-11-20T15:12:04.824Z,100085.06
2022-11-20T15:14:38.295Z,100086.66
2022-11-20T15:17:04.685Z,100076.25
2022-11-20T15:19:31.178Z,100079.84
2022-11-20T15:21:57.611Z,100077.41
2022-11-20T15:24:24.326Z,100071.06
2022-11-20T15:26:50.862Z,100065.88
2022-11-20T15:29:22.770Z,100068.97
2022-11-20T15:31:49.249Z,100066.53
2022-11-20T15:34:16.513Z,100063.31
2022-11-20T15:36:43.634Z,100067.22
2022-11-20T15:39:10.493Z,100063.97
2022-11-20T15:41:37.361Z,100050.13
2022-11-20T15:44:05.316Z,100032.72
2022-11-20T15:46:38.445Z,100040.22
2022-11-20T15:49:06.404Z,100043.78
2022-11-20T15:51:36.209Z,100026.38
2022-11-20T15:54:11.731Z,100015.66
2022-11-20T15:56:38.653Z,100013.38
2022-11-20T15:59:05.497Z,100005.06
2022-11-20T16:01:32.338Z,100010.13
2022-11-20T16:03:58.709Z,99992.69
2022-11-20T16:06:25.111Z,99995.47
2022-11-20T16:08:51.643Z,99982.78
2022-11-20T16:11:19.182Z,99980.03
2022-11-20T16:14:04.503Z,99975.63
2022-11-20T16:16:34.320Z,99981.97
2022-11-20T16:19:01.135Z,99975.28
2022-11-20T16:21:32.347Z,99967.00
2022-11-20T16:24:01.545Z,99969.75
2022-11-20T16:26:28.938Z,99965.72
2022-11-20T16:28:56.062Z,99953.84
2022-11-20T16:31:23.027Z,99960.53
2022-11-20T16:33:54.431Z,99950.50
2022-11-20T16:36:22.854Z,99943.66
2022-11-20T16:38:54.099Z,99947.09
2022-11-20T16:41:20.476Z,99935.22
2022-11-20T16:43:52.281Z,99932.34
2022-11-20T16:46:23.668Z,99921.13
2022-11-20T16:48:54.771Z,99929.78
2022-11-20T16:51:23.471Z,99919.84
2022-11-20T16:53:53.758Z,99914.31
2022-11-20T16:56:22.804Z,99909.94
2022-11-20T16:58:51.039Z,99911.56
2022-11-20T17:01:21.670Z,99921.50
2022-11-20T17:04:01.319Z,99920.34
2022-11-20T17:06:30.586Z,99924.38
2022-11-20T17:08:57.897Z,99920.94
2022-11-20T17:11:25.064Z,99915.06
2022-11-20T17:13:52.435Z,99924.97
2022-11-20T17:16:21.308Z,99918.75
2022-11-20T17:18:49.878Z,99912.06
2022-11-20T17:21:16.652Z,99907.84
2022-11-20T17:23:45.878Z,99903.25
2022-11-20T17:26:14.678Z,99905.53
2022-11-20T17:28:41.595Z,99899.19
2022-11-20T17:31:10.824Z,99896.78
2022-11-20T17:33:38.676Z,99887.66
2022-11-20T17:36:06.882Z,99880.97
2022-11-20T17:38:34.860Z,99888.13
2022-11-20T17:41:15.785Z,99886.50
2022-11-20T17:43:43.465Z,99875.09
2022-11-20T17:46:20.594Z,99872.69
2022-11-20T17:48:49.394Z,99867.94
2022-11-20T17:51:23.964Z,99865.19
2022-11-20T17:53:52.921Z,99851.34
2022-11-20T17:56:38.051Z,99847.78
2022-11-20T17:59:09.622Z,99846.16
2022-11-20T18:01:36.696Z,99840.28
2022-11-20T18:04:03.620Z,99830.38
2022-11-20T18:06:31.070Z,99829.56
2022-11-20T18:09:01.628Z,99831.84
2022-11-20T18:11:30.806Z,99816.41
2022-11-20T18:14:17.890Z,99815.97
2022-11-20T18:16:51.467Z,99807.97
2022-11-20T18:19:20.904Z,99801.66
2022-11-20T18:21:47.713Z,99801.66
2022-11-20T18:24:15.615Z,99794.50
2022-11-20T18:26:44.535Z,99794.16
2022-11-20T18:29:13.003Z,99794.16
2022-11-20T18:31:40.277Z,99788.63
2022-11-20T18:34:11.296Z,99777.09
2022-11-20T18:36:39.987Z,99780.69
2022-11-20T18:39:06.695Z,99769.63
2022-11-20T18:41:51.693Z,99765.22
2022-11-20T18:44:39.469Z,99756.13
2022-11-20T18:47:14.220Z,99753.38
2022-11-20T18:49:44.129Z,99748.97
2022-11-20T18:52:11.936Z,99750.59
2022-11-20T18:54:38.450Z,99734.00
2022-11-20T18:57:05.153Z,99730.44
2022-11-20T18:59:34.195Z,99737.09
2022-11-20T19:02:00.770Z,99721.66
2022-11-20T19:04:27.637Z,99716.47
2022-11-20T19:06:56.357Z,99713.22
2022-11-20T19:09:24.018Z,99708.53
2022-11-20T19:11:52.407Z,99697.47
2022-11-20T19:14:18.934Z,99691.59
2022-11-20T19:16:45.334Z,99684.91
2022-11-20T19:19:11.865Z,99678.56
2022-11-20T19:21:38.241Z,99671.88
2022-11-20T19:24:05.575Z,99667.16
2022-11-20T19:26:34.240Z,99658.84
2022-11-20T19:29:00.608Z,99656.56
2022-11-20T19:31:28.758Z,99645.50
2022-11-20T19:33:57.294Z,99647.91
2022-11-20T19:36:26.397Z,99632.13
2022-11-20T19:38:53.860Z,99631.88
2022-11-20T19:41:29.172Z,99631.09
2022-11-20T19:44:13.546Z,99621.53
2022-11-20T19:46:41.315Z,99621.19
2022-11-20T19:49:10.332Z,99614.84
2022-11-20T19:51:38.471Z,99613.22
2022-11-20T19:54:05.291Z,99604.09
2022-11-20T19:56:34.056Z,99599.72
2022-11-20T19:59:01.217Z,99597.75
2022-11-20T20:01:30.151Z,99592.59
2022-11-20T20:04:01.401Z,99586.69
2022-11-20T20:06:28.718Z,99581.16
2022-11-20T20:09:05.667Z,99578.75
2022-11-20T20:11:34.321Z,99572.88
2022-11-20T20:14:07.756Z,99568.16
2022-11-20T20:16:35.155Z,99569.31
2022-11-20T20:19:03.515Z,99559.03
2022-11-20T20:21:30.852Z,99560.19
2022-11-20T20:23:58.346Z,99564.94
2022-11-20T20:26:27.014Z,99559.28
2022-11-20T20:28:55.579Z,99554.91
2022-11-20T20:31:27.175Z,99546.16
2022-11-20T20:33:56.007Z,99539.47
2022-11-20T20:36:23.742Z,99535.78
2022-11-20T20:38:54.912Z,99534.50
2022-11-20T20:41:23.310Z,99534.06
2022-11-20T20:44:08.263Z,99529.69
2022-11-20T20:46:34.784Z,99526.81
2022-11-20T20:49:01.560Z,99544.56
2022-11-20T20:51:28.655Z,99544.91
2022-11-20T20:53:54.992Z,99536.94
2022-11-20T20:56:21.674Z,99542.16
2022-11-20T20:58:48.034Z,99542.97
2022-11-20T21:01:16.304Z,99532.69
2022-11-20T21:03:42.835Z,99534.31
2022-11-20T21:06:10.950Z,99528.78
2022-11-20T21:08:40.419Z,99533.94
2022-11-20T21:11:10.248Z,99532.34
2022-11-20T21:13:37.805Z,99535.91
2022-11-20T21:16:06.347Z,99533.94
2022-11-20T21:18:33.003Z,99540.28
2022-11-20T21:21:18.358Z,99534.41
2022-11-20T21:23:47.727Z,99531.09
2022-11-20T21:26:16.045Z,99539.72
2022-11-20T21:28:42.549Z,99534.06
2022-11-20T21:31:22.096Z,99547.78
2022-11-20T21:33:50.682Z,99537.91
2022-11-20T21:36:22.381Z,99540.97
2022-11-20T21:38:51.121Z,99540.53
2022-11-20T21:41:17.797Z,99547.22
2022-11-20T21:43:44.440Z,99547.56
2022-11-20T21:46:13.385Z,99551.47
2022-11-20T21:48:41.386Z,99549.50
2022-11-20T21:51:15.438Z,99555.84
2022-11-20T21:53:45.196Z,99558.28
2022-11-20T21:56:16.498Z,99560.69
2022-11-20T21:58:48.017Z,99558.72
2022-11-20T22:01:16.278Z,99564.72
2022-11-20T22:03:47.005Z,99573.13
2022-11-20T22:06:14.756Z,99574.72
2022-11-20T22:08:41.076Z,99575.22
2022-11-20T22:11:11.777Z,99582.34
2022-11-20T22:13:57.219Z,99588.69
2022-11-20T22:16:23.733Z,99610.13
2022-11-20T22:18:52.352Z,99618.84
2022-11-20T22:21:19.775Z,99637.91
2022-11-20T22:23:46.385Z,99631.78
2022-11-20T22:26:15.629Z,99633.38
2022-11-20T22:28:43.302Z,99621.97
2022-11-20T22:31:11.175Z,99623.59
2022-11-20T22:33:38.908Z,99623.59
2022-11-20T22:36:09.818Z,99639.72
2022-11-20T22:38:39.540Z,99641.22
2022-11-20T22:41:09.361Z,99649.41
2022-11-20T22:43:36.067Z,99659.19
2022-11-20T22:46:16.433Z,99662.66
2022-11-20T22:48:51.643Z,99666.09
2022-11-20T22:51:22.868Z,99673.59
2022-11-20T22:53:49.384Z,99675.06
2022-11-20T22:56:19.715Z,99678.53
2022-11-20T22:58:48.408Z,99691.06
2022-11-20T23:01:17.014Z,99689.81
2022-11-20T23:03:45.329Z,99702.34
2022-11-20T23:06:13.698Z,99700.28
2022-11-20T23:08:41.916Z,99699.34
2022-11-20T23:11:13.941Z,99703.59
2022-11-20T23:13:40.731Z,99709.81
2022-11-20T23:16:10.325Z,99719.59
2022-11-20T23:18:37.356Z,99719.94
2022-11-20T23:21:18.731Z,99723.00
2022-11-20T23:23:51.182Z,99727.72
2022-11-20T23:26:19.216Z,99733.75
2022-11-20T23:28:46.392Z,99735.72
2022-11-20T23:31:14.265Z,99734.19
2022-11-20T23:33:42.531Z,99752.88
2022-11-20T23:36:09.876Z,99746.53
2022-11-20T23:38:36.188Z,99749.31
2022-11-20T23:41:03.546Z,99740.22
2022-11-20T23:43:30.409Z,99751.28
2022-11-20T23:46:04.865Z,99749.63
2022-11-20T23:48:34.637Z,99748.81
2022-11-20T23:51:03.880Z,99753.53
2022-11-20T23:53:30.426Z,99759.88
2022-11-20T23:55:58.830Z,99764.59
2022-11-20T23:58:30.465Z,99769.81
